createdAt,value
2022-08-26T00:00:58.879Z,0.85
2022-08-26T00:03:25.840Z,0.52
2022-08-26T00:05:52.430Z,0.68
2022-08-26T00:08:20.422Z,0.75
2022-08-26T00:10:47.010Z,0.80
2022-08-26T00:13:13.605Z,0.70
2022-08-26T00:15:40.572Z,0.80
2022-08-26T00:18:22.408Z,0.93
2022-08-26T00:20:49.550Z,1.15
2022-08-26T00:23:16.644Z,1.00
2022-08-26T00:25:43.425Z,1.10
2022-08-26T00:28:10.933Z,0.73
2022-08-26T00:30:38.151Z,0.98
2022-08-26T00:33:06.276Z,1.00
2022-08-26T00:35:34.352Z,0.50
2022-08-26T00:38:03.458Z,0.70
2022-08-26T00:40:32.173Z,0.70
2022-08-26T00:42:59.404Z,1.20
2022-08-26T00:45:26.374Z,0.80
2022-08-26T00:47:56.203Z,1.15
2022-08-26T00:50:27.412Z,0.80
2022-08-26T00:52:55.503Z,0.77
2022-08-26T00:55:25.510Z,0.95
2022-08-26T00:58:01.979Z,0.77
2022-08-26T01:00:32.145Z,1.00
2022-08-26T01:02:59.551Z,0.70
2022-08-26T01:05:26.065Z,0.90
2022-08-26T01:07:52.627Z,0.73
2022-08-26T01:10:24.628Z,1.15
2022-08-26T01:13:07.082Z,0.98
2022-08-26T01:15:35.378Z,0.88
2022-08-26T01:18:05.718Z,1.02
2022-08-26T01:20:41.493Z,1.10
2022-08-26T01:23:09.372Z,1.00
2022-08-26T01:25:39.224Z,0.70
2022-08-26T01:28:08.295Z,0.70
2022-08-26T01:30:35.550Z,0.73
2022-08-26T01:33:04.862Z,0.93
2022-08-26T01:35:31.427Z,1.52
2022-08-26T01:37:58.299Z,1.15
2022-08-26T01:40:26.748Z,1.45
2022-08-26T01:42:54.220Z,1.17
2022-08-26T01:45:25.610Z,0.75
2022-08-26T01:47:56.996Z,0.73
2022-08-26T01:50:30.361Z,0.98
2022-08-26T01:52:58.863Z,0.77
2022-08-26T01:55:32.324Z,1.23
2022-08-26T01:58:01.615Z,1.23
2022-08-26T02:00:28.294Z,0.60
2022-08-26T02:03:16.143Z,0.90
2022-08-26T02:05:45.414Z,0.90
2022-08-26T02:08:20.611Z,0.90
2022-08-26T02:10:51.591Z,0.70
2022-08-26T02:13:21.887Z,1.00
2022-08-26T02:15:49.424Z,0.80
2022-08-26T02:18:17.111Z,0.98
2022-08-26T02:20:44.129Z,0.75
2022-08-26T02:23:10.693Z,0.57
2022-08-26T02:25:49.550Z,0.88
2022-08-26T02:28:17.743Z,0.70
2022-08-26T02:30:47.264Z,0.73
2022-08-26T02:33:14.571Z,0.80
2022-08-26T02:35:41.313Z,1.27
2022-08-26T02:38:10.066Z,0.90
2022-08-26T02:40:40.692Z,0.63
2022-08-26T02:43:08.130Z,0.80
2022-08-26T02:45:35.814Z,0.80
2022-08-26T02:48:09.805Z,0.90
2022-08-26T02:50:37.008Z,0.85
2022-08-26T02:53:04.762Z,0.65
2022-08-26T02:55:32.800Z,0.80
2022-08-26T02:57:59.823Z,0.73
2022-08-26T03:00:26.447Z,0.77
2022-08-26T03:02:53.177Z,0.70
2022-08-26T03:05:21.739Z,0.95
2022-08-26T03:07:51.144Z,0.80
2022-08-26T03:10:17.888Z,0.90
2022-08-26T03:12:47.525Z,0.52
2022-08-26T03:15:21.713Z,1.63
2022-08-26T03:17:49.210Z,0.70
2022-08-26T03:20:17.660Z,0.70
2022-08-26T03:22:44.479Z,1.17
2022-08-26T03:25:12.079Z,0.63
2022-08-26T03:27:38.803Z,0.40
2022-08-26T03:30:25.278Z,0.88
2022-08-26T03:32:53.164Z,0.60
2022-08-26T03:35:19.747Z,0.90
2022-08-26T03:37:49.140Z,0.70
2022-08-26T03:40:16.169Z,0.50
2022-08-26T03:42:46.935Z,0.60
2022-08-26T03:45:14.393Z,0.52
2022-08-26T03:47:41.611Z,0.63
2022-08-26T03:50:09.877Z,0.60
2022-08-26T03:52:38.762Z,0.60
2022-08-26T03:55:08.623Z,0.82
2022-08-26T03:57:35.507Z,0.70
2022-08-26T04:00:02.215Z,0.63
2022-08-26T04:02:28.834Z,0.93
2022-08-26T04:04:55.387Z,0.65
2022-08-26T04:07:22.035Z,0.93
2022-08-26T04:09:49.428Z,0.80
2022-08-26T04:12:16.332Z,0.52
2022-08-26T04:14:43.201Z,0.57
2022-08-26T04:17:11.878Z,1.08
2022-08-26T04:19:38.433Z,0.70
2022-08-26T04:22:05.099Z,1.33
2022-08-26T04:24:32.216Z,1.10
2022-08-26T04:26:58.939Z,0.40
2022-08-26T04:29:26.685Z,0.75
2022-08-26T04:31:57.373Z,0.50
2022-08-26T04:34:24.971Z,0.85
2022-08-26T04:36:56.141Z,0.75
2022-08-26T04:39:22.705Z,0.40
2022-08-26T04:41:49.485Z,0.70
2022-08-26T04:44:17.788Z,0.57
2022-08-26T04:46:44.406Z,0.52
2022-08-26T04:49:11.376Z,0.70
2022-08-26T04:51:38.380Z,0.47
2022-08-26T04:54:07.037Z,0.70
2022-08-26T04:56:35.571Z,0.50
2022-08-26T04:59:03.205Z,0.63
2022-08-26T05:01:33.037Z,0.90
2022-08-26T05:04:07.986Z,0.57
2022-08-26T05:06:36.971Z,0.60
2022-08-26T05:09:03.922Z,0.70
2022-08-26T05:11:30.626Z,0.77
2022-08-26T05:14:01.655Z,0.82
2022-08-26T05:16:30.469Z,0.57
2022-08-26T05:18:57.588Z,0.60
2022-08-26T05:21:26.568Z,0.85
2022-08-26T05:23:55.089Z,0.63
2022-08-26T05:26:23.306Z,0.77
2022-08-26T05:28:50.095Z,0.77
2022-08-26T05:31:18.766Z,0.80
2022-08-26T05:33:45.526Z,0.77
2022-08-26T05:36:13.795Z,0.93
2022-08-26T05:38:40.377Z,0.60
2022-08-26T05:41:15.545Z,0.70
2022-08-26T05:43:43.568Z,0.60
2022-08-26T05:46:10.234Z,0.73
2022-08-26T05:48:37.215Z,1.02
2022-08-26T05:51:06.028Z,1.02
2022-08-26T05:53:33.176Z,0.93
2022-08-26T05:56:01.013Z,1.00
2022-08-26T05:58:27.643Z,0.70
2022-08-26T06:01:20.594Z,1.13
2022-08-26T06:03:50.149Z,0.70
2022-08-26T06:06:27.915Z,1.00
2022-08-26T06:08:55.584Z,0.80
2022-08-26T06:11:25.724Z,1.15
2022-08-26T06:13:53.474Z,1.30
2022-08-26T06:16:21.651Z,0.80
2022-08-26T06:18:48.322Z,1.05
2022-08-26T06:21:14.879Z,1.10
2022-08-26T06:24:00.232Z,0.70
2022-08-26T06:26:27.774Z,0.73
2022-08-26T06:28:55.585Z,0.88
2022-08-26T06:31:23.160Z,0.70
2022-08-26T06:33:53.923Z,0.70
2022-08-26T06:36:25.563Z,0.60
2022-08-26T06:38:52.846Z,0.55
2022-08-26T06:41:21.245Z,0.65
2022-08-26T06:43:48.426Z,0.75
2022-08-26T06:46:17.332Z,0.70
2022-08-26T06:48:44.394Z,0.80
2022-08-26T06:51:37.462Z,0.50
2022-08-26T06:54:04.727Z,0.57
2022-08-26T06:56:35.796Z,0.60
2022-08-26T06:59:02.687Z,1.00
2022-08-26T07:01:32.059Z,0.50
2022-08-26T07:04:00.158Z,0.45
2022-08-26T07:06:28.202Z,0.50
2022-08-26T07:09:01.353Z,0.40
2022-08-26T07:11:30.264Z,0.35
2022-08-26T07:13:59.028Z,0.52
2022-08-26T07:16:27.567Z,0.60
2022-08-26T07:18:54.316Z,0.35
2022-08-26T07:21:21.536Z,0.40
2022-08-26T07:23:49.103Z,0.50
2022-08-26T07:26:17.803Z,0.35
2022-08-26T07:28:46.348Z,0.40
2022-08-26T07:31:13.546Z,0.50
2022-08-26T07:33:40.694Z,0.57
2022-08-26T07:36:08.311Z,0.80
2022-08-26T07:38:35.479Z,0.57
2022-08-26T07:41:01.994Z,0.82
2022-08-26T07:43:28.837Z,0.43
2022-08-26T07:45:55.858Z,0.30
2022-08-26T07:48:22.353Z,0.20
2022-08-26T07:50:50.588Z,0.30
2022-08-26T07:53:18.185Z,0.22
2022-08-26T07:55:46.294Z,0.50
2022-08-26T07:58:12.839Z,0.25
2022-08-26T08:00:39.423Z,0.20
2022-08-26T08:03:06.344Z,0.35
2022-08-26T08:05:33.907Z,0.47
2022-08-26T08:08:26.694Z,0.68
2022-08-26T08:10:48.908Z,0.63
2022-08-26T08:13:15.771Z,0.40
2022-08-26T08:15:42.460Z,4.25
2022-08-26T08:18:15.228Z,0.73
2022-08-26T08:20:44.826Z,0.45
2022-08-26T08:23:20.993Z,0.30
2022-08-26T08:25:49.231Z,1.05
2022-08-26T08:28:15.915Z,0.20
2022-08-26T08:30:42.740Z,0.38
2022-08-26T08:33:09.307Z,0.50
2022-08-26T08:35:37.215Z,0.20
2022-08-26T08:38:04.345Z,0.20
2022-08-26T08:40:31.427Z,0.22
2022-08-26T08:43:09.975Z,0.20
2022-08-26T08:45:49.579Z,0.30
2022-08-26T08:48:16.288Z,0.30
2022-08-26T08:50:45.804Z,0.25
2022-08-26T08:53:12.303Z,0.20
2022-08-26T08:55:53.147Z,0.28
2022-08-26T08:58:21.213Z,0.20
2022-08-26T09:01:02.552Z,0.20
2022-08-26T09:03:38.415Z,0.47
2022-08-26T09:06:16.943Z,0.25
2022-08-26T09:08:45.545Z,0.20
2022-08-26T09:11:12.179Z,0.25
2022-08-26T09:13:39.867Z,0.20
2022-08-26T09:16:13.821Z,0.10
2022-08-26T09:18:56.302Z,0.10
2022-08-26T09:21:26.202Z,0.20
2022-08-26T09:23:56.797Z,0.65
2022-08-26T09:26:29.189Z,0.20
2022-08-26T09:28:59.054Z,0.15
2022-08-26T09:31:27.751Z,0.30
2022-08-26T09:34:06.275Z,0.20
2022-08-26T09:36:41.195Z,0.20
2022-08-26T09:39:31.246Z,0.10
2022-08-26T09:42:05.445Z,0.20
2022-08-26T09:44:32.726Z,0.30
2022-08-26T09:47:01.781Z,0.25
2022-08-26T09:49:35.597Z,0.10
2022-08-26T09:52:05.611Z,0.30
2022-08-26T09:54:32.709Z,0.30
2022-08-26T09:57:12.216Z,0.40
2022-08-26T09:59:39.992Z,0.50
2022-08-26T10:02:36.230Z,0.43
2022-08-26T10:05:09.637Z,0.40
2022-08-26T10:07:41.855Z,0.35
2022-08-26T10:10:14.245Z,0.52
2022-08-26T10:12:44.623Z,0.22
2022-08-26T10:15:12.008Z,0.50
2022-08-26T10:17:41.109Z,0.35
2022-08-26T10:20:23.475Z,0.98
2022-08-26T10:23:02.870Z,0.65
2022-08-26T10:25:32.694Z,0.50
2022-08-26T10:28:11.966Z,0.45
2022-08-26T10:30:45.591Z,0.63
2022-08-26T10:33:14.631Z,0.50
2022-08-26T10:35:47.331Z,0.50
2022-08-26T10:38:16.567Z,0.60
2022-08-26T10:40:56.814Z,0.70
2022-08-26T10:43:27.902Z,0.50
2022-08-26T10:45:57.281Z,0.50
2022-08-26T10:48:26.652Z,0.50
2022-08-26T10:51:04.205Z,0.82
2022-08-26T10:53:32.786Z,0.40
2022-08-26T10:56:19.427Z,0.60
2022-08-26T10:59:01.409Z,0.38
2022-08-26T11:01:43.721Z,0.40
2022-08-26T11:04:22.627Z,0.60
2022-08-26T11:06:49.717Z,1.17
2022-08-26T11:09:35.218Z,0.50
2022-08-26T11:12:10.029Z,0.50
2022-08-26T11:14:44.644Z,0.70
2022-08-26T11:17:40.325Z,0.80
2022-08-26T11:20:13.388Z,0.50
2022-08-26T11:22:47.630Z,0.70
2022-08-26T11:25:15.675Z,0.63
2022-08-26T11:27:52.488Z,0.52
2022-08-26T11:30:20.306Z,0.50
2022-08-26T11:32:49.646Z,0.68
2022-08-26T11:35:19.426Z,0.52
2022-08-26T11:37:48.942Z,0.38
2022-08-26T11:40:20.758Z,0.80
2022-08-26T11:42:54.470Z,0.80
2022-08-26T11:45:24.000Z,0.90
2022-08-26T11:47:50.643Z,0.80
2022-08-26T11:50:26.257Z,0.63
2022-08-26T11:52:54.508Z,0.98
2022-08-26T11:55:23.332Z,0.60
2022-08-26T11:57:53.231Z,0.57
2022-08-26T12:00:33.376Z,0.65
2022-08-26T12:03:02.658Z,0.47
2022-08-26T12:05:31.370Z,0.70
2022-08-26T12:08:00.904Z,0.65
2022-08-26T12:10:30.147Z,0.80
2022-08-26T12:12:58.805Z,0.68
2022-08-26T12:15:25.786Z,0.80
2022-08-26T12:17:54.504Z,0.77
2022-08-26T12:20:48.565Z,0.65
2022-08-26T12:23:30.379Z,0.65
2022-08-26T12:26:05.433Z,0.70
2022-08-26T12:28:33.197Z,0.88
2022-08-26T12:31:05.190Z,0.93
2022-08-26T12:33:33.896Z,1.45
2022-08-26T12:36:02.076Z,0.90
2022-08-26T12:38:28.911Z,0.93
2022-08-26T12:40:55.999Z,0.75
2022-08-26T12:43:41.484Z,0.60
2022-08-26T12:46:11.278Z,0.93
2022-08-26T12:48:40.290Z,0.90
2022-08-26T12:51:18.633Z,0.93
2022-08-26T12:53:45.178Z,0.95
2022-08-26T12:56:25.145Z,0.90
2022-08-26T12:59:02.780Z,0.60
2022-08-26T13:01:35.568Z,0.70
2022-08-26T13:04:02.135Z,0.90
2022-08-26T13:06:29.398Z,0.65
2022-08-26T13:08:58.732Z,0.75
2022-08-26T13:11:25.181Z,0.77
2022-08-26T13:13:53.576Z,0.55
2022-08-26T13:16:23.604Z,0.70
2022-08-26T13:18:51.679Z,0.80
2022-08-26T13:21:20.095Z,1.20
2022-08-26T13:23:46.953Z,1.00
2022-08-26T13:26:13.458Z,0.82
2022-08-26T13:28:40.009Z,0.77
2022-08-26T13:31:06.756Z,0.70
2022-08-26T13:33:33.450Z,0.90
2022-08-26T13:36:00.587Z,0.70
2022-08-26T13:38:33.678Z,0.85
2022-08-26T13:41:01.808Z,1.15
2022-08-26T13:43:28.643Z,0.95
2022-08-26T13:45:55.495Z,0.45
2022-08-26T13:48:23.533Z,0.70
2022-08-26T13:50:50.221Z,1.10
2022-08-26T13:53:17.250Z,0.70
2022-08-26T13:55:43.744Z,0.68
2022-08-26T13:58:10.704Z,0.93
2022-08-26T14:00:37.929Z,0.90
2022-08-26T14:03:04.886Z,0.98
2022-08-26T14:05:31.469Z,0.75
2022-08-26T14:07:57.968Z,0.70
2022-08-26T14:10:25.679Z,0.75
2022-08-26T14:12:52.841Z,0.75
2022-08-26T14:15:19.692Z,1.15
2022-08-26T14:17:47.123Z,1.13
2022-08-26T14:20:15.966Z,1.20
2022-08-26T14:23:03.502Z,0.77
2022-08-26T14:25:30.874Z,0.90
2022-08-26T14:27:57.366Z,0.45
2022-08-26T14:30:23.901Z,0.40
2022-08-26T14:32:52.426Z,0.52
2022-08-26T14:35:20.998Z,0.30
2022-08-26T14:37:47.590Z,0.60
2022-08-26T14:40:14.293Z,0.50
2022-08-26T14:42:41.643Z,0.52
2022-08-26T14:45:11.738Z,0.50
2022-08-26T14:47:38.219Z,0.60
2022-08-26T14:50:08.503Z,0.73
2022-08-26T14:52:54.939Z,0.82
2022-08-26T14:55:21.459Z,0.70
2022-08-26T14:57:47.989Z,0.85
2022-08-26T15:00:15.252Z,0.93
2022-08-26T15:02:42.592Z,1.02
2022-08-26T15:05:10.836Z,1.05
2022-08-26T15:07:38.171Z,1.55
2022-08-26T15:10:08.749Z,0.88
2022-08-26T15:12:35.376Z,0.63
2022-08-26T15:15:01.872Z,1.00
2022-08-26T15:17:28.644Z,1.30
2022-08-26T15:19:55.187Z,1.25
2022-08-26T15:22:21.659Z,1.35
2022-08-26T15:24:48.298Z,1.23
2022-08-26T15:27:20.307Z,1.10
2022-08-26T15:29:46.863Z,1.35
2022-08-26T15:32:13.436Z,1.33
2022-08-26T15:34:40.025Z,1.15
2022-08-26T15:37:06.863Z,1.50
2022-08-26T15:39:34.230Z,1.10
2022-08-26T15:42:00.846Z,1.45
2022-08-26T15:44:27.539Z,1.23
2022-08-26T15:46:58.421Z,1.40
2022-08-26T15:49:25.463Z,1.20
2022-08-26T15:51:52.330Z,1.17
2022-08-26T15:54:20.238Z,0.98
2022-08-26T15:56:48.561Z,1.15
2022-08-26T15:59:16.048Z,1.30
2022-08-26T16:01:43.398Z,1.35
2022-08-26T16:04:10.211Z,1.20
2022-08-26T16:06:38.283Z,1.35
2022-08-26T16:09:05.939Z,1.60
2022-08-26T16:11:33.269Z,1.52
2022-08-26T16:13:59.881Z,1.00
2022-08-26T16:16:27.048Z,1.08
2022-08-26T16:18:53.919Z,1.20
2022-08-26T16:21:21.974Z,1.10
2022-08-26T16:23:48.560Z,1.20
2022-08-26T16:26:19.790Z,0.95
2022-08-26T16:28:46.361Z,1.25
2022-08-26T16:31:13.012Z,1.25
2022-08-26T16:33:40.090Z,1.00
2022-08-26T16:36:07.100Z,1.10
2022-08-26T16:38:33.937Z,1.27
2022-08-26T16:41:01.310Z,1.27
2022-08-26T16:43:28.135Z,1.65
2022-08-26T16:45:54.801Z,1.70
2022-08-26T16:48:21.443Z,1.73
2022-08-26T16:50:48.031Z,2.20
2022-08-26T16:55:44.379Z,2.25
2022-08-26T16:58:11.025Z,3.00
2022-08-26T17:00:37.833Z,1.73
2022-08-26T17:03:04.527Z,2.22
2022-08-26T17:05:31.255Z,1.90
2022-08-26T17:07:58.603Z,1.30
2022-08-26T17:10:25.897Z,1.15
2022-08-26T17:12:52.472Z,1.52
2022-08-26T17:15:19.170Z,1.20
2022-08-26T17:17:45.711Z,1.60
2022-08-26T17:20:13.946Z,1.50
2022-08-26T17:22:41.747Z,1.10
2022-08-26T17:25:13.521Z,1.08
2022-08-26T17:27:40.931Z,1.38
2022-08-26T17:30:07.871Z,1.42
2022-08-26T17:32:34.501Z,1.10
2022-08-26T17:35:01.639Z,0.98
2022-08-26T17:37:28.417Z,0.90
2022-08-26T17:39:54.988Z,1.00
2022-08-26T17:42:21.661Z,1.05
2022-08-26T17:44:58.415Z,1.27
2022-08-26T17:47:25.103Z,0.88
2022-08-26T17:49:51.689Z,0.88
2022-08-26T17:52:18.202Z,0.93
2022-08-26T17:54:44.830Z,1.10
2022-08-26T17:57:11.409Z,1.23
2022-08-26T17:59:38.723Z,1.13
2022-08-26T18:02:07.501Z,1.20
2022-08-26T18:04:34.058Z,0.90
2022-08-26T18:07:01.378Z,1.25
2022-08-26T18:09:31.202Z,0.88
2022-08-26T18:11:58.279Z,1.25
2022-08-26T18:14:25.338Z,0.90
2022-08-26T18:16:51.847Z,0.65
2022-08-26T18:19:18.405Z,0.77
2022-08-26T18:21:44.887Z,0.93
2022-08-26T18:24:14.010Z,0.90
2022-08-26T18:26:41.424Z,1.00
2022-08-26T18:29:08.230Z,0.70
2022-08-26T18:31:34.978Z,0.60
2022-08-26T18:34:02.077Z,1.05
2022-08-26T18:36:33.813Z,0.90
2022-08-26T18:39:00.851Z,1.33
2022-08-26T18:41:30.470Z,1.35
2022-08-26T18:43:57.518Z,1.15
2022-08-26T18:46:25.362Z,0.60
2022-08-26T18:48:53.561Z,1.60
2022-08-26T18:51:22.124Z,1.50
2022-08-26T18:53:49.147Z,1.13
2022-08-26T18:56:18.160Z,1.02
2022-08-26T18:58:45.289Z,1.17
2022-08-26T19:06:49.564Z,1.05
2022-08-26T19:09:19.359Z,1.40
2022-08-26T19:11:48.193Z,1.33
2022-08-26T19:14:16.561Z,1.40
2022-08-26T19:16:44.580Z,1.02
2022-08-26T19:19:11.279Z,1.63
2022-08-26T19:21:38.613Z,1.65
2022-08-26T19:24:07.405Z,1.70
2022-08-26T19:26:34.415Z,1.80
2022-08-26T19:29:01.050Z,1.52
2022-08-26T19:31:27.581Z,1.40
2022-08-26T19:33:54.372Z,1.77
2022-08-26T19:36:23.583Z,1.50
2022-08-26T19:38:50.465Z,1.35
2022-08-26T19:41:21.491Z,1.67
2022-08-26T19:43:48.092Z,1.73
2022-08-26T19:46:17.963Z,1.50
2022-08-26T19:48:44.659Z,1.90
2022-08-26T19:51:15.927Z,1.40
2022-08-26T19:53:43.783Z,1.50
2022-08-26T19:56:10.513Z,1.55
2022-08-26T19:58:37.088Z,2.03
2022-08-26T20:01:04.046Z,1.33
2022-08-26T20:03:30.712Z,1.73
2022-08-26T20:05:57.234Z,1.77
2022-08-26T20:08:23.811Z,1.52
2022-08-26T20:10:51.208Z,1.20
2022-08-26T20:15:59.333Z,1.23
2022-08-26T20:18:44.568Z,1.20
2022-08-26T20:21:26.413Z,1.10
2022-08-26T20:24:12.664Z,1.08
2022-08-26T20:26:40.254Z,1.38
2022-08-26T20:29:07.380Z,1.83
2022-08-26T20:31:35.423Z,1.08
2022-08-26T20:34:02.199Z,1.52
2022-08-26T20:36:29.307Z,1.50
2022-08-26T20:38:56.355Z,1.55
2022-08-26T20:41:25.462Z,1.33
2022-08-26T20:43:52.712Z,1.50
2022-08-26T20:46:22.929Z,1.25
2022-08-26T20:48:51.126Z,1.33
2022-08-26T20:51:17.838Z,1.40
2022-08-26T20:53:45.026Z,1.20
2022-08-26T20:56:12.793Z,1.30
2022-08-26T20:58:39.828Z,1.20
2022-08-26T21:01:08.210Z,1.00
2022-08-26T21:03:35.831Z,1.00
2022-08-26T21:06:03.781Z,1.00
2022-08-26T21:08:30.457Z,1.20
2022-08-26T21:10:59.929Z,1.10
2022-08-26T21:13:26.451Z,1.50
2022-08-26T21:15:55.703Z,1.20
2022-08-26T21:18:22.235Z,1.35
2022-08-26T21:20:48.763Z,1.10
2022-08-26T21:23:15.250Z,1.38
2022-08-26T21:25:41.913Z,1.05
2022-08-26T21:28:08.607Z,1.10
2022-08-26T21:30:37.477Z,1.02
2022-08-26T21:33:04.294Z,1.80
2022-08-26T21:35:30.871Z,1.05
2022-08-26T21:37:57.357Z,1.17
2022-08-26T21:40:23.904Z,1.10
2022-08-26T21:42:50.474Z,1.30
2022-08-26T21:45:17.040Z,1.23
2022-08-26T21:47:43.678Z,1.17
2022-08-26T21:50:10.704Z,1.20
2022-08-26T21:52:37.755Z,1.08
2022-08-26T21:55:04.994Z,1.10
2022-08-26T21:57:35.699Z,1.50
2022-08-26T22:00:04.539Z,1.00
2022-08-26T22:02:31.565Z,1.48
2022-08-26T22:04:58.152Z,1.15
2022-08-26T22:07:24.718Z,1.20
2022-08-26T22:09:51.246Z,1.10
2022-08-26T22:12:18.438Z,1.10
2022-08-26T22:14:45.640Z,1.35
2022-08-26T22:17:12.368Z,1.40
2022-08-26T22:19:46.488Z,1.63
2022-08-26T22:22:13.822Z,1.27
2022-08-26T22:24:40.363Z,1.20
2022-08-26T22:27:06.890Z,1.52
2022-08-26T22:29:33.474Z,1.30
2022-08-26T22:32:01.064Z,1.15
2022-08-26T22:34:28.223Z,1.77
2022-08-26T22:36:54.866Z,1.55
2022-08-26T22:39:22.600Z,1.33
2022-08-26T22:41:49.642Z,1.35
2022-08-26T22:44:16.926Z,1.17
2022-08-26T22:46:43.967Z,1.10
2022-08-26T22:49:12.560Z,1.08
2022-08-26T22:51:39.313Z,1.10
2022-08-26T22:54:06.439Z,1.35
2022-08-26T22:56:32.991Z,1.27
2022-08-26T22:58:59.516Z,1.73
2022-08-26T23:01:26.430Z,1.73
2022-08-26T23:03:53.662Z,1.23
2022-08-26T23:06:20.239Z,1.05
2022-08-26T23:08:47.565Z,1.25
2022-08-26T23:11:15.009Z,1.40
2022-08-26T23:13:41.881Z,1.30
2022-08-26T23:16:09.952Z,1.77
2022-08-26T23:18:36.698Z,1.70
2022-08-26T23:21:03.347Z,1.35
2022-08-26T23:23:29.935Z,1.75
2022-08-26T23:25:56.525Z,1.52
2022-08-26T23:28:23.311Z,2.13
2022-08-26T23:30:50.296Z,2.10
2022-08-26T23:33:16.855Z,2.30
2022-08-26T23:35:43.674Z,1.73
2022-08-26T23:38:13.414Z,1.98
2022-08-26T23:40:41.257Z,2.50
2022-08-26T23:43:09.497Z,1.77
2022-08-26T23:45:36.157Z,1.75
2022-08-26T23:48:03.191Z,2.00
2022-08-26T23:50:49.279Z,2.05
2022-08-26T23:53:19.627Z,2.08
2022-08-26T23:55:48.211Z,2.17
2022-08-26T23:58:15.908Z,1.75
